sensor_id;sensor_type;location;lat;lon;timestamp;temperature;humidity
76613;DHT22;65507;48.454;-2.058;2023-01-16T00:00:51;8.90;82.20
76613;DHT22;65507;48.454;-2.058;2023-01-16T00:03:17;8.90;82.20
76613;DHT22;65507;48.454;-2.058;2023-01-16T00:05:43;8.90;82.20
76613;DHT22;65507;48.454;-2.058;2023-01-16T00:08:10;8.90;82.20
76613;DHT22;65507;48.454;-2.058;2023-01-16T00:10:35;8.80;82.20
76613;DHT22;65507;48.454;-2.058;2023-01-16T00:13:02;8.80;82.20
76613;DHT22;65507;48.454;-2.058;2023-01-16T00:15:27;8.80;82.30
76613;DHT22;65507;48.454;-2.058;2023-01-16T00:17:53;8.80;82.20
76613;DHT22;65507;48.454;-2.058;2023-01-16T00:20:19;8.80;82.20
76613;DHT22;65507;48.454;-2.058;2023-01-16T00:22:45;8.80;82.20
76613;DHT22;65507;48.454;-2.058;2023-01-16T00:25:11;8.80;82.20
76613;DHT22;65507;48.454;-2.058;2023-01-16T00:27:37;8.80;82.20
76613;DHT22;65507;48.454;-2.058;2023-01-16T00:30:04;8.80;82.20
76613;DHT22;65507;48.454;-2.058;2023-01-16T00:32:30;8.70;82.20
76613;DHT22;65507;48.454;-2.058;2023-01-16T00:34:56;8.70;82.20
76613;DHT22;65507;48.454;-2.058;2023-01-16T00:37:21;8.70;82.20
76613;DHT22;65507;48.454;-2.058;2023-01-16T00:39:47;8.70;82.20
76613;DHT22;65507;48.454;-2.058;2023-01-16T00:42:14;8.70;82.20
76613;DHT22;65507;48.454;-2.058;2023-01-16T00:44:40;8.70;82.10
76613;DHT22;65507;48.454;-2.058;2023-01-16T00:47:06;8.60;82.00
76613;DHT22;65507;48.454;-2.058;2023-01-16T00:49:32;8.60;82.00
76613;DHT22;65507;48.454;-2.058;2023-01-16T00:51:58;8.60;82.00
76613;DHT22;65507;48.454;-2.058;2023-01-16T00:54:24;8.60;81.90
76613;DHT22;65507;48.454;-2.058;2023-01-16T00:56:50;8.60;81.90
76613;DHT22;65507;48.454;-2.058;2023-01-16T00:59:15;8.50;81.80
76613;DHT22;65507;48.454;-2.058;2023-01-16T01:01:41;8.50;81.80
76613;DHT22;65507;48.454;-2.058;2023-01-16T01:04:07;8.50;81.80
76613;DHT22;65507;48.454;-2.058;2023-01-16T01:06:33;8.50;81.80
76613;DHT22;65507;48.454;-2.058;2023-01-16T01:08:59;8.50;81.70
76613;DHT22;65507;48.454;-2.058;2023-01-16T01:11:24;8.50;81.60
76613;DHT22;65507;48.454;-2.058;2023-01-16T01:13:50;8.50;81.50
76613;DHT22;65507;48.454;-2.058;2023-01-16T01:16:16;8.50;81.50
76613;DHT22;65507;48.454;-2.058;2023-01-16T01:18:42;8.50;81.50
76613;DHT22;65507;48.454;-2.058;2023-01-16T01:21:09;8.50;81.40
76613;DHT22;65507;48.454;-2.058;2023-01-16T01:23:35;8.50;81.40
76613;DHT22;65507;48.454;-2.058;2023-01-16T01:26:12;8.50;81.30
76613;DHT22;65507;48.454;-2.058;2023-01-16T01:28:39;8.50;81.20
76613;DHT22;65507;48.454;-2.058;2023-01-16T01:31:10;8.50;81.20
76613;DHT22;65507;48.454;-2.058;2023-01-16T01:33:36;8.50;81.10
76613;DHT22;65507;48.454;-2.058;2023-01-16T01:36:02;8.50;81.00
76613;DHT22;65507;48.454;-2.058;2023-01-16T01:38:29;8.50;81.00
76613;DHT22;65507;48.454;-2.058;2023-01-16T01:40:55;8.50;80.90
76613;DHT22;65507;48.454;-2.058;2023-01-16T01:43:20;8.60;81.00
76613;DHT22;65507;48.454;-2.058;2023-01-16T01:45:50;8.50;80.90
76613;DHT22;65507;48.454;-2.058;2023-01-16T01:48:43;8.60;80.90
76613;DHT22;65507;48.454;-2.058;2023-01-16T01:51:13;8.50;80.90
76613;DHT22;65507;48.454;-2.058;2023-01-16T01:54:03;8.50;81.00
76613;DHT22;65507;48.454;-2.058;2023-01-16T01:56:44;8.50;81.00
76613;DHT22;65507;48.454;-2.058;2023-01-16T01:59:18;8.50;81.00
76613;DHT22;65507;48.454;-2.058;2023-01-16T02:01:46;8.50;81.20
76613;DHT22;65507;48.454;-2.058;2023-01-16T02:04:18;8.40;81.10
76613;DHT22;65507;48.454;-2.058;2023-01-16T02:06:49;8.40;81.20
76613;DHT22;65507;48.454;-2.058;2023-01-16T02:09:16;8.40;81.30
76613;DHT22;65507;48.454;-2.058;2023-01-16T02:11:52;8.30;81.30
76613;DHT22;65507;48.454;-2.058;2023-01-16T02:14:18;8.30;81.50
76613;DHT22;65507;48.454;-2.058;2023-01-16T02:16:46;8.30;81.50
76613;DHT22;65507;48.454;-2.058;2023-01-16T02:33:54;8.10;81.90
76613;DHT22;65507;48.454;-2.058;2023-01-16T02:41:49;8.00;82.20
76613;DHT22;65507;48.454;-2.058;2023-01-16T02:49:39;8.00;82.20
76613;DHT22;65507;48.454;-2.058;2023-01-16T02:52:16;8.00;82.10
76613;DHT22;65507;48.454;-2.058;2023-01-16T02:54:57;8.00;82.00
76613;DHT22;65507;48.454;-2.058;2023-01-16T02:57:31;8.00;82.00
76613;DHT22;65507;48.454;-2.058;2023-01-16T02:59:59;8.00;82.00
76613;DHT22;65507;48.454;-2.058;2023-01-16T03:02:25;8.00;82.00
76613;DHT22;65507;48.454;-2.058;2023-01-16T03:04:52;8.10;82.00
76613;DHT22;65507;48.454;-2.058;2023-01-16T03:13:10;8.10;81.70
76613;DHT22;65507;48.454;-2.058;2023-01-16T03:16:03;8.20;81.70
76613;DHT22;65507;48.454;-2.058;2023-01-16T03:21:37;8.20;81.50
76613;DHT22;65507;48.454;-2.058;2023-01-16T03:26:45;8.20;81.60
76613;DHT22;65507;48.454;-2.058;2023-01-16T03:29:33;8.20;81.60
76613;DHT22;65507;48.454;-2.058;2023-01-16T03:32:20;8.10;81.60
76613;DHT22;65507;48.454;-2.058;2023-01-16T03:35:00;8.10;81.60
76613;DHT22;65507;48.454;-2.058;2023-01-16T03:37:37;8.00;81.80
76613;DHT22;65507;48.454;-2.058;2023-01-16T03:40:09;8.00;81.90
76613;DHT22;65507;48.454;-2.058;2023-01-16T03:42:54;8.00;82.00
76613;DHT22;65507;48.454;-2.058;2023-01-16T03:48:50;7.70;82.50
76613;DHT22;65507;48.454;-2.058;2023-01-16T03:51:24;7.60;82.60
76613;DHT22;65507;48.454;-2.058;2023-01-16T03:54:22;7.50;82.80
76613;DHT22;65507;48.454;-2.058;2023-01-16T03:57:21;7.50;82.90
76613;DHT22;65507;48.454;-2.058;2023-01-16T03:59:49;7.40;83.00
76613;DHT22;65507;48.454;-2.058;2023-01-16T04:05:21;7.30;83.20
76613;DHT22;65507;48.454;-2.058;2023-01-16T04:08:13;7.30;83.40
76613;DHT22;65507;48.454;-2.058;2023-01-16T04:10:42;7.10;83.50
76613;DHT22;65507;48.454;-2.058;2023-01-16T04:13:18;7.80;84.20
76613;DHT22;65507;48.454;-2.058;2023-01-16T04:15:49;7.00;84.00
76613;DHT22;65507;48.454;-2.058;2023-01-16T04:18:16;6.90;84.10
76613;DHT22;65507;48.454;-2.058;2023-01-16T04:20:45;6.90;84.20
76613;DHT22;65507;48.454;-2.058;2023-01-16T04:23:13;7.00;84.20
76613;DHT22;65507;48.454;-2.058;2023-01-16T04:25:41;7.00;84.10
76613;DHT22;65507;48.454;-2.058;2023-01-16T04:28:07;7.00;84.20
76613;DHT22;65507;48.454;-2.058;2023-01-16T04:30:32;7.00;84.10
76613;DHT22;65507;48.454;-2.058;2023-01-16T04:33:01;7.00;84.10
76613;DHT22;65507;48.454;-2.058;2023-01-16T04:35:27;7.00;84.20
76613;DHT22;65507;48.454;-2.058;2023-01-16T04:37:53;6.90;84.30
76613;DHT22;65507;48.454;-2.058;2023-01-16T04:40:19;6.90;84.40
76613;DHT22;65507;48.454;-2.058;2023-01-16T04:42:45;6.90;84.40
76613;DHT22;65507;48.454;-2.058;2023-01-16T04:45:10;6.90;84.40
76613;DHT22;65507;48.454;-2.058;2023-01-16T04:47:36;7.00;84.30
76613;DHT22;65507;48.454;-2.058;2023-01-16T04:50:02;7.00;84.00
76613;DHT22;65507;48.454;-2.058;2023-01-16T04:52:28;6.90;83.90
76613;DHT22;65507;48.454;-2.058;2023-01-16T04:54:54;6.80;85.10
76613;DHT22;65507;48.454;-2.058;2023-01-16T04:57:20;6.70;84.50
76613;DHT22;65507;48.454;-2.058;2023-01-16T04:59:48;6.70;84.70
76613;DHT22;65507;48.454;-2.058;2023-01-16T05:02:14;6.60;84.90
76613;DHT22;65507;48.454;-2.058;2023-01-16T05:04:40;6.70;85.00
76613;DHT22;65507;48.454;-2.058;2023-01-16T05:07:06;6.70;85.00
76613;DHT22;65507;48.454;-2.058;2023-01-16T05:09:32;6.70;84.80
76613;DHT22;65507;48.454;-2.058;2023-01-16T05:11:57;6.70;84.70
76613;DHT22;65507;48.454;-2.058;2023-01-16T05:14:23;6.80;84.70
76613;DHT22;65507;48.454;-2.058;2023-01-16T05:16:49;6.90;84.50
76613;DHT22;65507;48.454;-2.058;2023-01-16T05:19:14;6.90;84.30
76613;DHT22;65507;48.454;-2.058;2023-01-16T05:21:40;6.90;85.10
76613;DHT22;65507;48.454;-2.058;2023-01-16T05:24:06;6.90;84.10
76613;DHT22;65507;48.454;-2.058;2023-01-16T05:26:32;6.90;84.00
76613;DHT22;65507;48.454;-2.058;2023-01-16T05:28:57;6.90;84.00
76613;DHT22;65507;48.454;-2.058;2023-01-16T05:31:24;7.00;84.00
76613;DHT22;65507;48.454;-2.058;2023-01-16T05:33:50;7.00;83.80
76613;DHT22;65507;48.454;-2.058;2023-01-16T05:36:15;7.00;83.70
76613;DHT22;65507;48.454;-2.058;2023-01-16T05:38:41;7.10;83.40
76613;DHT22;65507;48.454;-2.058;2023-01-16T05:41:07;7.10;83.20
76613;DHT22;65507;48.454;-2.058;2023-01-16T05:43:33;7.20;83.00
76613;DHT22;65507;48.454;-2.058;2023-01-16T05:45:58;7.30;82.70
76613;DHT22;65507;48.454;-2.058;2023-01-16T05:48:24;7.30;82.30
76613;DHT22;65507;48.454;-2.058;2023-01-16T05:50:50;7.40;82.00
76613;DHT22;65507;48.454;-2.058;2023-01-16T05:53:16;7.50;81.60
76613;DHT22;65507;48.454;-2.058;2023-01-16T05:55:44;7.50;81.20
76613;DHT22;65507;48.454;-2.058;2023-01-16T05:58:11;7.60;81.10
76613;DHT22;65507;48.454;-2.058;2023-01-16T06:00:38;7.60;81.00
76613;DHT22;65507;48.454;-2.058;2023-01-16T06:03:04;7.60;80.90
76613;DHT22;65507;48.454;-2.058;2023-01-16T06:05:29;7.70;80.80
76613;DHT22;65507;48.454;-2.058;2023-01-16T06:07:55;7.70;80.60
76613;DHT22;65507;48.454;-2.058;2023-01-16T06:10:22;7.80;80.50
76613;DHT22;65507;48.454;-2.058;2023-01-16T06:12:48;7.80;80.40
76613;DHT22;65507;48.454;-2.058;2023-01-16T06:15:14;7.80;80.10
76613;DHT22;65507;48.454;-2.058;2023-01-16T06:22:50;7.80;79.50
76613;DHT22;65507;48.454;-2.058;2023-01-16T06:25:16;7.80;79.40
76613;DHT22;65507;48.454;-2.058;2023-01-16T06:27:42;7.90;79.30
76613;DHT22;65507;48.454;-2.058;2023-01-16T06:30:09;7.90;78.80
76613;DHT22;65507;48.454;-2.058;2023-01-16T06:32:35;7.90;78.40
76613;DHT22;65507;48.454;-2.058;2023-01-16T06:35:01;8.00;79.10
76613;DHT22;65507;48.454;-2.058;2023-01-16T06:37:26;8.00;78.20
76613;DHT22;65507;48.454;-2.058;2023-01-16T06:39:52;8.00;78.00
76613;DHT22;65507;48.454;-2.058;2023-01-16T06:42:19;8.00;77.90
76613;DHT22;65507;48.454;-2.058;2023-01-16T06:44:47;8.00;77.70
76613;DHT22;65507;48.454;-2.058;2023-01-16T06:47:12;8.00;77.50
76613;DHT22;65507;48.454;-2.058;2023-01-16T06:49:39;8.00;77.30
76613;DHT22;65507;48.454;-2.058;2023-01-16T06:52:04;8.00;77.30
76613;DHT22;65507;48.454;-2.058;2023-01-16T06:54:30;8.00;77.00
76613;DHT22;65507;48.454;-2.058;2023-01-16T06:56:56;8.00;76.80
76613;DHT22;65507;48.454;-2.058;2023-01-16T06:59:22;8.00;76.70
76613;DHT22;65507;48.454;-2.058;2023-01-16T07:01:47;8.00;76.40
76613;DHT22;65507;48.454;-2.058;2023-01-16T07:04:13;8.00;76.50
76613;DHT22;65507;48.454;-2.058;2023-01-16T07:06:39;7.90;76.30
76613;DHT22;65507;48.454;-2.058;2023-01-16T07:09:07;8.00;77.10
76613;DHT22;65507;48.454;-2.058;2023-01-16T07:11:33;8.00;76.20
76613;DHT22;65507;48.454;-2.058;2023-01-16T07:13:59;7.90;76.30
76613;DHT22;65507;48.454;-2.058;2023-01-16T07:16:43;7.90;76.30
76613;DHT22;65507;48.454;-2.058;2023-01-16T07:19:29;7.90;76.30
76613;DHT22;65507;48.454;-2.058;2023-01-16T07:22:15;8.00;76.40
76613;DHT22;65507;48.454;-2.058;2023-01-16T07:25:00;8.00;76.40
76613;DHT22;65507;48.454;-2.058;2023-01-16T07:27:26;8.00;76.30
76613;DHT22;65507;48.454;-2.058;2023-01-16T07:29:52;7.90;76.10
76613;DHT22;65507;48.454;-2.058;2023-01-16T07:32:19;7.90;75.90
76613;DHT22;65507;48.454;-2.058;2023-01-16T07:34:45;7.90;76.00
76613;DHT22;65507;48.454;-2.058;2023-01-16T07:37:11;7.90;76.00
76613;DHT22;65507;48.454;-2.058;2023-01-16T07:39:37;7.90;76.10
76613;DHT22;65507;48.454;-2.058;2023-01-16T07:42:07;7.90;76.10
76613;DHT22;65507;48.454;-2.058;2023-01-16T07:44:33;7.90;76.00
76613;DHT22;65507;48.454;-2.058;2023-01-16T07:46:59;7.90;75.80
76613;DHT22;65507;48.454;-2.058;2023-01-16T07:49:30;7.90;75.70
76613;DHT22;65507;48.454;-2.058;2023-01-16T07:51:56;8.00;75.80
76613;DHT22;65507;48.454;-2.058;2023-01-16T07:54:24;8.00;75.60
76613;DHT22;65507;48.454;-2.058;2023-01-16T07:56:50;8.00;75.50
76613;DHT22;65507;48.454;-2.058;2023-01-16T07:59:16;8.10;75.50
76613;DHT22;65507;48.454;-2.058;2023-01-16T08:01:42;8.00;75.40
76613;DHT22;65507;48.454;-2.058;2023-01-16T08:04:08;8.00;76.00
76613;DHT22;65507;48.454;-2.058;2023-01-16T08:06:36;8.00;75.90
76613;DHT22;65507;48.454;-2.058;2023-01-16T08:09:02;7.90;76.20
76613;DHT22;65507;48.454;-2.058;2023-01-16T08:11:28;7.80;76.60
76613;DHT22;65507;48.454;-2.058;2023-01-16T08:14:05;7.80;77.00
76613;DHT22;65507;48.454;-2.058;2023-01-16T08:16:32;7.60;77.30
76613;DHT22;65507;48.454;-2.058;2023-01-16T08:19:00;7.50;77.70
76613;DHT22;65507;48.454;-2.058;2023-01-16T08:21:30;7.40;78.00
76613;DHT22;65507;48.454;-2.058;2023-01-16T08:23:56;7.30;78.40
76613;DHT22;65507;48.454;-2.058;2023-01-16T08:26:25;7.30;78.60
76613;DHT22;65507;48.454;-2.058;2023-01-16T08:28:51;7.30;78.70
76613;DHT22;65507;48.454;-2.058;2023-01-16T08:31:17;7.20;78.60
76613;DHT22;65507;48.454;-2.058;2023-01-16T08:33:44;7.30;78.40
76613;DHT22;65507;48.454;-2.058;2023-01-16T08:36:12;7.30;78.30
76613;DHT22;65507;48.454;-2.058;2023-01-16T08:38:41;7.30;78.10
76613;DHT22;65507;48.454;-2.058;2023-01-16T08:41:09;7.40;79.00
76613;DHT22;65507;48.454;-2.058;2023-01-16T08:43:55;7.40;78.00
76613;DHT22;65507;48.454;-2.058;2023-01-16T08:46:40;7.40;77.90
76613;DHT22;65507;48.454;-2.058;2023-01-16T08:49:27;7.40;77.90
76613;DHT22;65507;48.454;-2.058;2023-01-16T08:52:12;7.40;77.90
76613;DHT22;65507;48.454;-2.058;2023-01-16T08:54:38;7.40;78.10
76613;DHT22;65507;48.454;-2.058;2023-01-16T08:57:04;7.40;78.20
76613;DHT22;65507;48.454;-2.058;2023-01-16T08:59:30;7.30;78.20
76613;DHT22;65507;48.454;-2.058;2023-01-16T09:02:00;7.30;78.30
76613;DHT22;65507;48.454;-2.058;2023-01-16T09:04:26;7.40;78.40
76613;DHT22;65507;48.454;-2.058;2023-01-16T09:06:52;7.40;78.40
76613;DHT22;65507;48.454;-2.058;2023-01-16T09:09:19;7.40;78.40
76613;DHT22;65507;48.454;-2.058;2023-01-16T09:11:45;7.50;78.40
76613;DHT22;65507;48.454;-2.058;2023-01-16T09:14:29;7.50;78.40
76613;DHT22;65507;48.454;-2.058;2023-01-16T09:16:55;7.60;78.40
76613;DHT22;65507;48.454;-2.058;2023-01-16T09:19:21;7.70;78.20
76613;DHT22;65507;48.454;-2.058;2023-01-16T09:21:47;7.80;78.00
76613;DHT22;65507;48.454;-2.058;2023-01-16T09:24:12;8.00;77.80
76613;DHT22;65507;48.454;-2.058;2023-01-16T09:26:38;8.10;77.60
76613;DHT22;65507;48.454;-2.058;2023-01-16T09:29:04;8.20;77.40
76613;DHT22;65507;48.454;-2.058;2023-01-16T09:31:30;8.30;77.40
76613;DHT22;65507;48.454;-2.058;2023-01-16T09:33:55;8.30;77.30
76613;DHT22;65507;48.454;-2.058;2023-01-16T09:36:21;8.30;77.30
76613;DHT22;65507;48.454;-2.058;2023-01-16T09:38:47;8.40;77.30
76613;DHT22;65507;48.454;-2.058;2023-01-16T09:41:18;8.40;77.30
76613;DHT22;65507;48.454;-2.058;2023-01-16T09:44:09;8.40;77.30
76613;DHT22;65507;48.454;-2.058;2023-01-16T09:46:44;8.40;77.30
76613;DHT22;65507;48.454;-2.058;2023-01-16T09:49:24;8.40;77.10
76613;DHT22;65507;48.454;-2.058;2023-01-16T09:52:00;8.40;77.30
76613;DHT22;65507;48.454;-2.058;2023-01-16T09:54:52;8.30;77.50
76613;DHT22;65507;48.454;-2.058;2023-01-16T09:57:39;8.30;77.60
76613;DHT22;65507;48.454;-2.058;2023-01-16T10:00:26;8.30;77.50
76613;DHT22;65507;48.454;-2.058;2023-01-16T10:02:53;8.40;77.50
76613;DHT22;65507;48.454;-2.058;2023-01-16T10:05:20;8.50;77.40
76613;DHT22;65507;48.454;-2.058;2023-01-16T10:11:02;8.70;77.00
76613;DHT22;65507;48.454;-2.058;2023-01-16T10:26:58;8.70;76.00
76613;DHT22;65507;48.454;-2.058;2023-01-16T10:29:28;8.70;75.80
76613;DHT22;65507;48.454;-2.058;2023-01-16T10:37:11;9.00;75.40
76613;DHT22;65507;48.454;-2.058;2023-01-16T10:39:37;9.10;75.20
76613;DHT22;65507;48.454;-2.058;2023-01-16T10:42:13;9.20;75.00
76613;DHT22;65507;48.454;-2.058;2023-01-16T10:45:16;9.30;74.50
76613;DHT22;65507;48.454;-2.058;2023-01-16T10:48:03;9.30;74.30
76613;DHT22;65507;48.454;-2.058;2023-01-16T10:50:47;9.30;74.40
76613;DHT22;65507;48.454;-2.058;2023-01-16T10:53:13;9.30;74.30
76613;DHT22;65507;48.454;-2.058;2023-01-16T10:55:44;9.30;74.40
76613;DHT22;65507;48.454;-2.058;2023-01-16T10:58:38;9.40;74.30
76613;DHT22;65507;48.454;-2.058;2023-01-16T11:01:18;9.40;74.20
76613;DHT22;65507;48.454;-2.058;2023-01-16T11:03:49;9.50;74.10
76613;DHT22;65507;48.454;-2.058;2023-01-16T11:06:19;9.50;74.00
76613;DHT22;65507;48.454;-2.058;2023-01-16T11:08:52;9.50;74.00
76613;DHT22;65507;48.454;-2.058;2023-01-16T11:11:21;9.50;74.10
76613;DHT22;65507;48.454;-2.058;2023-01-16T11:14:20;9.50;74.10
76613;DHT22;65507;48.454;-2.058;2023-01-16T11:17:21;9.60;74.20
76613;DHT22;65507;48.454;-2.058;2023-01-16T11:20:08;9.60;74.10
76613;DHT22;65507;48.454;-2.058;2023-01-16T11:22:39;9.70;74.00
76613;DHT22;65507;48.454;-2.058;2023-01-16T11:25:09;9.80;73.80
76613;DHT22;65507;48.454;-2.058;2023-01-16T11:27:38;9.80;73.50
76613;DHT22;65507;48.454;-2.058;2023-01-16T11:30:07;9.80;73.50
76613;DHT22;65507;48.454;-2.058;2023-01-16T11:32:39;9.80;73.60
76613;DHT22;65507;48.454;-2.058;2023-01-16T11:35:13;9.70;73.50
76613;DHT22;65507;48.454;-2.058;2023-01-16T11:37:44;9.60;73.70
76613;DHT22;65507;48.454;-2.058;2023-01-16T11:40:20;9.60;73.70
76613;DHT22;65507;48.454;-2.058;2023-01-16T11:42:55;9.60;73.70
76613;DHT22;65507;48.454;-2.058;2023-01-16T11:45:45;9.70;73.70
76613;DHT22;65507;48.454;-2.058;2023-01-16T11:48:43;9.70;73.70
76613;DHT22;65507;48.454;-2.058;2023-01-16T11:51:19;9.60;73.70
76613;DHT22;65507;48.454;-2.058;2023-01-16T11:53:48;9.60;74.00
76613;DHT22;65507;48.454;-2.058;2023-01-16T12:13:27;8.10;76.60
76613;DHT22;65507;48.454;-2.058;2023-01-16T12:21:41;7.90;76.80
76613;DHT22;65507;48.454;-2.058;2023-01-16T12:33:31;7.90;76.70
76613;DHT22;65507;48.454;-2.058;2023-01-16T12:38:47;8.00;76.10
76613;DHT22;65507;48.454;-2.058;2023-01-16T12:41:17;8.10;75.80
76613;DHT22;65507;48.454;-2.058;2023-01-16T12:44:34;8.20;75.70
76613;DHT22;65507;48.454;-2.058;2023-01-16T12:58:16;8.00;76.60
76613;DHT22;65507;48.454;-2.058;2023-01-16T13:01:02;8.00;76.50
76613;DHT22;65507;48.454;-2.058;2023-01-16T13:03:36;8.00;76.60
76613;DHT22;65507;48.454;-2.058;2023-01-16T13:06:12;8.00;76.70
76613;DHT22;65507;48.454;-2.058;2023-01-16T13:08:42;8.00;76.70
76613;DHT22;65507;48.454;-2.058;2023-01-16T13:11:14;8.10;76.70
76613;DHT22;65507;48.454;-2.058;2023-01-16T13:14:04;8.20;76.70
76613;DHT22;65507;48.454;-2.058;2023-01-16T13:16:39;9.20;77.00
76613;DHT22;65507;48.454;-2.058;2023-01-16T13:19:14;8.30;76.50
76613;DHT22;65507;48.454;-2.058;2023-01-16T13:24:54;8.40;76.30
76613;DHT22;65507;48.454;-2.058;2023-01-16T13:27:40;8.40;76.40
76613;DHT22;65507;48.454;-2.058;2023-01-16T13:30:16;8.30;76.40
76613;DHT22;65507;48.454;-2.058;2023-01-16T13:33:04;8.40;76.50
76613;DHT22;65507;48.454;-2.058;2023-01-16T13:43:33;8.70;76.00
76613;DHT22;65507;48.454;-2.058;2023-01-16T13:46:19;8.80;76.00
76613;DHT22;65507;48.454;-2.058;2023-01-16T13:48:52;8.80;75.80
76613;DHT22;65507;48.454;-2.058;2023-01-16T13:51:18;8.80;75.80
76613;DHT22;65507;48.454;-2.058;2023-01-16T13:53:50;8.80;76.00
76613;DHT22;65507;48.454;-2.058;2023-01-16T13:56:22;8.80;75.90
76613;DHT22;65507;48.454;-2.058;2023-01-16T14:06:50;9.10;75.70
76613;DHT22;65507;48.454;-2.058;2023-01-16T14:10:05;9.20;75.60
76613;DHT22;65507;48.454;-2.058;2023-01-16T14:12:34;9.20;75.50
76613;DHT22;65507;48.454;-2.058;2023-01-16T14:15:29;9.30;75.40
76613;DHT22;65507;48.454;-2.058;2023-01-16T14:18:58;9.30;75.30
76613;DHT22;65507;48.454;-2.058;2023-01-16T14:24:06;9.30;75.50
76613;DHT22;65507;48.454;-2.058;2023-01-16T14:26:56;9.10;75.40
76613;DHT22;65507;48.454;-2.058;2023-01-16T14:29:30;9.20;75.50
76613;DHT22;65507;48.454;-2.058;2023-01-16T14:34:41;9.10;75.60
76613;DHT22;65507;48.454;-2.058;2023-01-16T14:39:57;9.10;75.80
76613;DHT22;65507;48.454;-2.058;2023-01-16T14:42:35;9.10;75.70
76613;DHT22;65507;48.454;-2.058;2023-01-16T14:50:59;9.10;75.50
76613;DHT22;65507;48.454;-2.058;2023-01-16T14:54:04;9.10;75.40
76613;DHT22;65507;48.454;-2.058;2023-01-16T14:56:53;9.10;75.30
76613;DHT22;65507;48.454;-2.058;2023-01-16T14:59:33;9.10;75.40
76613;DHT22;65507;48.454;-2.058;2023-01-16T15:07:44;9.10;75.50
76613;DHT22;65507;48.454;-2.058;2023-01-16T15:10:34;9.00;75.60
76613;DHT22;65507;48.454;-2.058;2023-01-16T15:13:26;9.00;75.70
76613;DHT22;65507;48.454;-2.058;2023-01-16T15:16:20;9.00;75.60
76613;DHT22;65507;48.454;-2.058;2023-01-16T15:19:22;9.00;75.70
76613;DHT22;65507;48.454;-2.058;2023-01-16T15:22:23;9.00;75.90
76613;DHT22;65507;48.454;-2.058;2023-01-16T15:25:11;8.90;76.00
76613;DHT22;65507;48.454;-2.058;2023-01-16T15:27:41;8.90;76.00
76613;DHT22;65507;48.454;-2.058;2023-01-16T15:30:14;8.90;76.10
76613;DHT22;65507;48.454;-2.058;2023-01-16T15:32:57;8.90;76.10
76613;DHT22;65507;48.454;-2.058;2023-01-16T15:35:55;8.90;76.10
76613;DHT22;65507;48.454;-2.058;2023-01-16T15:38:23;9.00;76.10
76613;DHT22;65507;48.454;-2.058;2023-01-16T15:40:51;9.00;76.10
76613;DHT22;65507;48.454;-2.058;2023-01-16T15:43:18;9.00;76.10
76613;DHT22;65507;48.454;-2.058;2023-01-16T15:46:13;9.00;76.20
76613;DHT22;65507;48.454;-2.058;2023-01-16T15:49:23;9.00;76.20
76613;DHT22;65507;48.454;-2.058;2023-01-16T15:51:53;9.10;76.20
76613;DHT22;65507;48.454;-2.058;2023-01-16T15:54:21;9.10;76.20
76613;DHT22;65507;48.454;-2.058;2023-01-16T15:56:49;9.00;76.30
76613;DHT22;65507;48.454;-2.058;2023-01-16T15:59:29;9.00;76.40
76613;DHT22;65507;48.454;-2.058;2023-01-16T16:02:41;8.90;76.50
76613;DHT22;65507;48.454;-2.058;2023-01-16T16:05:11;8.80;76.60
76613;DHT22;65507;48.454;-2.058;2023-01-16T16:07:37;8.70;76.80
76613;DHT22;65507;48.454;-2.058;2023-01-16T16:10:03;8.60;77.00
76613;DHT22;65507;48.454;-2.058;2023-01-16T16:12:29;8.60;77.20
76613;DHT22;65507;48.454;-2.058;2023-01-16T16:15:17;8.50;77.20
76613;DHT22;65507;48.454;-2.058;2023-01-16T16:18:13;8.50;77.20
76613;DHT22;65507;48.454;-2.058;2023-01-16T16:20:41;8.40;77.40
76613;DHT22;65507;48.454;-2.058;2023-01-16T16:23:24;8.40;77.50
76613;DHT22;65507;48.454;-2.058;2023-01-16T16:26:04;8.30;77.50
76613;DHT22;65507;48.454;-2.058;2023-01-16T16:31:28;8.20;77.80
76613;DHT22;65507;48.454;-2.058;2023-01-16T16:34:05;8.10;77.90
76613;DHT22;65507;48.454;-2.058;2023-01-16T16:36:37;8.00;78.10
76613;DHT22;65507;48.454;-2.058;2023-01-16T16:41:51;7.90;78.20
76613;DHT22;65507;48.454;-2.058;2023-01-16T16:44:37;7.90;78.30
76613;DHT22;65507;48.454;-2.058;2023-01-16T16:47:34;7.80;78.40
76613;DHT22;65507;48.454;-2.058;2023-01-16T16:49:59;7.80;78.40
76613;DHT22;65507;48.454;-2.058;2023-01-16T16:52:35;7.70;78.40
76613;DHT22;65507;48.454;-2.058;2023-01-16T16:55:27;7.70;78.50
76613;DHT22;65507;48.454;-2.058;2023-01-16T16:57:56;7.60;78.60
76613;DHT22;65507;48.454;-2.058;2023-01-16T17:00:24;7.60;78.70
76613;DHT22;65507;48.454;-2.058;2023-01-16T17:03:00;7.50;78.60
76613;DHT22;65507;48.454;-2.058;2023-01-16T17:05:28;7.50;78.60
76613;DHT22;65507;48.454;-2.058;2023-01-16T17:07:53;7.50;78.70
76613;DHT22;65507;48.454;-2.058;2023-01-16T17:10:20;7.40;78.60
76613;DHT22;65507;48.454;-2.058;2023-01-16T17:12:46;7.40;78.70
76613;DHT22;65507;48.454;-2.058;2023-01-16T17:15:12;7.40;78.80
76613;DHT22;65507;48.454;-2.058;2023-01-16T17:17:40;7.40;78.90
76613;DHT22;65507;48.454;-2.058;2023-01-16T17:20:27;7.30;78.80
76613;DHT22;65507;48.454;-2.058;2023-01-16T17:22:53;7.30;78.90
76613;DHT22;65507;48.454;-2.058;2023-01-16T17:25:20;7.30;78.90
76613;DHT22;65507;48.454;-2.058;2023-01-16T17:27:47;7.20;79.00
76613;DHT22;65507;48.454;-2.058;2023-01-16T17:30:14;7.20;78.80
76613;DHT22;65507;48.454;-2.058;2023-01-16T17:32:41;7.20;78.90
76613;DHT22;65507;48.454;-2.058;2023-01-16T17:35:16;7.10;78.90
76613;DHT22;65507;48.454;-2.058;2023-01-16T17:37:42;7.10;79.10
76613;DHT22;65507;48.454;-2.058;2023-01-16T17:40:08;7.10;79.00
76613;DHT22;65507;48.454;-2.058;2023-01-16T17:42:34;7.10;79.00
76613;DHT22;65507;48.454;-2.058;2023-01-16T17:48:13;7.00;79.00
76613;DHT22;65507;48.454;-2.058;2023-01-16T17:50:38;7.00;79.20
76613;DHT22;65507;48.454;-2.058;2023-01-16T17:53:04;6.90;79.10
76613;DHT22;65507;48.454;-2.058;2023-01-16T17:55:30;6.90;79.10
76613;DHT22;65507;48.454;-2.058;2023-01-16T17:58:14;6.80;79.10
76613;DHT22;65507;48.454;-2.058;2023-01-16T18:00:40;6.80;79.00
76613;DHT22;65507;48.454;-2.058;2023-01-16T18:03:06;6.80;79.10
76613;DHT22;65507;48.454;-2.058;2023-01-16T18:05:32;6.80;79.00
76613;DHT22;65507;48.454;-2.058;2023-01-16T18:07:58;6.80;79.20
76613;DHT22;65507;48.454;-2.058;2023-01-16T18:10:24;6.80;79.10
76613;DHT22;65507;48.454;-2.058;2023-01-16T18:12:50;6.80;79.10
76613;DHT22;65507;48.454;-2.058;2023-01-16T18:15:34;6.70;79.00
76613;DHT22;65507;48.454;-2.058;2023-01-16T18:18:19;6.70;79.00
76613;DHT22;65507;48.454;-2.058;2023-01-16T18:20:45;6.70;79.00
76613;DHT22;65507;48.454;-2.058;2023-01-16T18:23:11;6.70;79.10
76613;DHT22;65507;48.454;-2.058;2023-01-16T18:25:38;6.60;79.10
76613;DHT22;65507;48.454;-2.058;2023-01-16T18:28:04;6.60;79.10
76613;DHT22;65507;48.454;-2.058;2023-01-16T18:30:32;6.60;79.20
76613;DHT22;65507;48.454;-2.058;2023-01-16T18:32:58;6.60;79.10
76613;DHT22;65507;48.454;-2.058;2023-01-16T18:35:24;6.50;79.30
76613;DHT22;65507;48.454;-2.058;2023-01-16T18:37:52;6.50;79.20
76613;DHT22;65507;48.454;-2.058;2023-01-16T18:40:36;6.50;79.30
76613;DHT22;65507;48.454;-2.058;2023-01-16T18:43:23;6.40;79.40
76613;DHT22;65507;48.454;-2.058;2023-01-16T18:46:15;6.40;79.40